createdAt,value
2022-08-19T00:01:45.234Z,4.20
2022-08-19T00:04:28.518Z,3.92
2022-08-19T00:09:32.310Z,3.60
2022-08-19T00:12:04.094Z,4.18
2022-08-19T00:14:35.744Z,3.75
2022-08-19T00:17:08.979Z,4.32
2022-08-19T00:19:41.523Z,4.25
2022-08-19T00:22:12.873Z,3.90
2022-08-19T00:24:50.878Z,3.28
2022-08-19T00:27:25.532Z,3.72
2022-08-19T00:29:59.776Z,3.90
2022-08-19T00:32:31.321Z,4.00
2022-08-19T00:35:04.682Z,3.65
2022-08-19T00:37:36.343Z,3.60
2022-08-19T00:40:08.598Z,3.70
2022-08-19T00:42:40.528Z,3.60
2022-08-19T00:45:18.185Z,3.80
2022-08-19T00:47:49.765Z,3.75
2022-08-19T00:50:22.039Z,4.18
2022-08-19T00:52:53.688Z,3.30
2022-08-19T00:55:28.950Z,3.97
2022-08-19T00:58:09.995Z,3.85
2022-08-19T01:00:41.837Z,4.05
2022-08-19T01:03:16.444Z,3.42
2022-08-19T01:05:52.817Z,4.22
2022-08-19T01:08:24.372Z,3.97
2022-08-19T01:11:00.360Z,4.00
2022-08-19T01:13:48.885Z,4.07
2022-08-19T01:16:24.744Z,3.95
2022-08-19T01:18:57.543Z,3.83
2022-08-19T01:21:41.354Z,3.35
2022-08-19T01:24:12.742Z,3.63
2022-08-19T01:26:45.286Z,3.60
2022-08-19T01:29:18.066Z,3.85
2022-08-19T01:31:50.082Z,3.65
2022-08-19T01:34:21.392Z,3.47
2022-08-19T01:36:52.723Z,3.58
2022-08-19T01:39:25.908Z,3.75
2022-08-19T01:41:57.348Z,4.30
2022-08-19T01:44:28.703Z,3.45
2022-08-19T01:47:00.221Z,5.22
2022-08-19T01:49:31.612Z,3.65
2022-08-19T01:52:03.870Z,3.55
2022-08-19T01:54:35.330Z,3.75
2022-08-19T01:57:12.170Z,4.07
2022-08-19T01:59:45.906Z,3.88
2022-08-19T02:02:17.508Z,4.53
2022-08-19T02:04:48.867Z,4.30
2022-08-19T02:07:22.546Z,3.97
2022-08-19T02:09:53.834Z,4.05
2022-08-19T02:12:25.287Z,3.97
2022-08-19T02:14:56.669Z,4.30
2022-08-19T02:17:29.817Z,4.13
2022-08-19T02:20:01.334Z,3.63
2022-08-19T02:22:33.718Z,3.95
2022-08-19T02:25:05.816Z,4.30
2022-08-19T02:27:37.258Z,3.95
2022-08-19T02:30:14.223Z,4.20
2022-08-19T02:32:45.941Z,4.45
2022-08-19T02:35:17.694Z,4.00
2022-08-19T02:38:07.518Z,4.50
2022-08-19T02:40:38.854Z,4.30
2022-08-19T02:43:10.208Z,4.93
2022-08-19T02:45:41.762Z,5.05
2022-08-19T02:48:21.294Z,5.60
2022-08-19T02:50:56.281Z,4.85
2022-08-19T02:53:29.158Z,5.40
2022-08-19T02:56:00.597Z,5.90
2022-08-19T02:58:31.918Z,5.20
2022-08-19T03:01:03.620Z,5.80
2022-08-19T03:03:35.006Z,6.45
2022-08-19T03:06:08.977Z,5.88
2022-08-19T03:08:45.558Z,5.10
2022-08-19T03:11:27.057Z,5.68
2022-08-19T03:14:00.920Z,6.72
2022-08-19T03:16:34.832Z,6.65
2022-08-19T03:19:06.129Z,6.15
2022-08-19T03:21:37.458Z,6.18
2022-08-19T03:24:09.500Z,6.65
2022-08-19T03:26:46.499Z,7.32
2022-08-19T03:29:30.901Z,7.53
2022-08-19T03:32:05.426Z,8.63
2022-08-19T03:34:39.010Z,7.78
2022-08-19T03:37:15.629Z,6.57
2022-08-19T03:39:46.947Z,8.07
2022-08-19T03:42:38.913Z,7.78
2022-08-19T03:45:11.167Z,9.00
2022-08-19T03:47:42.592Z,8.02
2022-08-19T03:50:13.917Z,8.65
2022-08-19T03:52:51.310Z,7.63
2022-08-19T03:55:22.733Z,7.22
2022-08-19T03:57:58.605Z,7.80
2022-08-19T04:00:30.536Z,7.70
2022-08-19T04:03:01.924Z,7.63
2022-08-19T04:05:33.358Z,6.53
2022-08-19T04:08:09.600Z,7.53
2022-08-19T04:10:43.359Z,7.78
2022-08-19T04:13:19.003Z,7.32
2022-08-19T04:15:50.671Z,6.72
2022-08-19T04:18:21.966Z,7.07
2022-08-19T04:20:53.276Z,7.20
2022-08-19T04:23:24.810Z,7.47
2022-08-19T04:25:56.992Z,6.65
2022-08-19T04:28:29.726Z,6.82
2022-08-19T04:31:01.041Z,6.95
2022-08-19T04:33:32.333Z,6.20
2022-08-19T04:36:03.942Z,6.43
2022-08-19T04:38:35.222Z,7.20
2022-08-19T04:41:25.262Z,6.45
2022-08-19T04:43:58.413Z,6.63
2022-08-19T04:49:23.763Z,5.38
2022-08-19T04:51:55.690Z,7.22
2022-08-19T04:54:37.386Z,6.88
2022-08-19T04:57:10.725Z,5.95
2022-08-19T04:59:42.368Z,6.65
2022-08-19T05:02:13.701Z,6.97
2022-08-19T05:04:45.022Z,6.78
2022-08-19T05:07:16.334Z,7.03
2022-08-19T05:09:58.647Z,7.45
2022-08-19T05:12:30.396Z,6.20
2022-08-19T05:15:04.135Z,6.75
2022-08-19T05:17:38.658Z,6.35
2022-08-19T05:20:29.504Z,6.83
2022-08-19T05:23:00.876Z,6.28
2022-08-19T05:25:32.172Z,6.93
2022-08-19T05:28:03.667Z,6.28
2022-08-19T05:30:46.866Z,6.75
2022-08-19T05:33:19.425Z,5.63
2022-08-19T05:35:51.511Z,6.60
2022-08-19T05:38:22.942Z,6.65
2022-08-19T05:40:54.296Z,6.90
2022-08-19T05:43:26.423Z,7.05
2022-08-19T05:45:57.744Z,6.18
2022-08-19T05:48:29.166Z,5.70
2022-08-19T05:51:07.004Z,6.05
2022-08-19T05:53:38.785Z,5.82
2022-08-19T05:56:16.911Z,5.57
2022-08-19T05:58:48.342Z,6.18
2022-08-19T06:01:19.930Z,6.65
2022-08-19T06:03:51.762Z,6.13
2022-08-19T06:06:23.114Z,6.57
2022-08-19T06:08:54.424Z,5.78
2022-08-19T06:11:36.061Z,6.97
2022-08-19T06:14:16.483Z,6.45
2022-08-19T06:16:48.191Z,6.30
2022-08-19T06:19:21.881Z,6.65
2022-08-19T06:21:54.129Z,6.13
2022-08-19T06:24:27.947Z,7.65
2022-08-19T06:27:01.606Z,7.82
2022-08-19T06:29:33.459Z,7.50
2022-08-19T06:32:05.395Z,7.38
2022-08-19T06:34:36.821Z,7.40
2022-08-19T06:37:08.714Z,7.38
2022-08-19T06:39:42.693Z,7.55
2022-08-19T06:42:17.190Z,7.78
2022-08-19T06:44:49.939Z,7.78
2022-08-19T06:47:25.244Z,8.30
2022-08-19T06:50:05.384Z,8.10
2022-08-19T06:52:38.258Z,7.20
2022-08-19T06:55:10.127Z,7.93
2022-08-19T06:57:41.449Z,7.38
2022-08-19T07:00:14.556Z,7.47
2022-08-19T07:02:50.592Z,7.70
2022-08-19T07:05:27.057Z,8.25
2022-08-19T07:08:01.704Z,7.95
2022-08-19T07:10:37.393Z,8.10
2022-08-19T07:13:14.154Z,7.45
2022-08-19T07:15:47.275Z,8.43
2022-08-19T07:18:21.219Z,7.93
2022-08-19T07:21:06.631Z,9.38
2022-08-19T07:23:40.910Z,7.55
2022-08-19T07:26:17.257Z,7.63
2022-08-19T07:28:51.371Z,8.77
2022-08-19T07:31:26.798Z,7.68
2022-08-19T07:34:04.241Z,8.45
2022-08-19T07:36:39.901Z,8.02
2022-08-19T07:39:30.183Z,8.45
2022-08-19T07:42:07.825Z,8.98
2022-08-19T07:47:48.197Z,8.20
2022-08-19T07:50:12.371Z,7.70
2022-08-19T07:52:45.212Z,8.57
2022-08-19T07:55:41.967Z,8.45
2022-08-19T07:58:17.215Z,9.88
2022-08-19T08:00:51.230Z,9.02
2022-08-19T08:03:47.031Z,9.13
2022-08-19T08:06:36.901Z,9.50
2022-08-19T08:09:11.725Z,8.40
2022-08-19T08:11:50.421Z,9.70
2022-08-19T08:14:35.127Z,8.90
2022-08-19T08:17:10.718Z,9.10
2022-08-19T08:19:43.440Z,10.07
2022-08-19T08:22:36.869Z,10.13
2022-08-19T08:25:13.047Z,8.73
2022-08-19T08:27:46.907Z,9.02
2022-08-19T08:30:22.701Z,7.70
2022-08-19T08:32:54.309Z,8.50
2022-08-19T08:35:25.973Z,8.50
2022-08-19T08:37:57.780Z,8.02
2022-08-19T08:40:50.700Z,7.68
2022-08-19T08:43:32.367Z,9.38
2022-08-19T08:46:08.670Z,8.32
2022-08-19T08:48:55.272Z,8.75
2022-08-19T08:51:35.166Z,9.05
2022-08-19T08:54:09.896Z,8.63
2022-08-19T08:56:44.122Z,8.50
2022-08-19T08:59:27.409Z,9.98
2022-08-19T09:01:59.454Z,9.13
2022-08-19T09:04:30.939Z,9.90
2022-08-19T09:07:34.745Z,9.25
2022-08-19T09:10:29.383Z,8.57
2022-08-19T09:13:24.614Z,8.77
2022-08-19T09:16:02.329Z,9.40
2022-08-19T09:18:54.041Z,8.80
2022-08-19T09:21:33.148Z,9.40
2022-08-19T09:24:06.410Z,8.80
2022-08-19T09:26:48.664Z,9.60
2022-08-19T09:29:24.226Z,8.18
2022-08-19T09:31:55.708Z,8.48
2022-08-19T09:34:27.047Z,7.80
2022-08-19T09:37:00.957Z,8.20
2022-08-19T09:39:35.923Z,8.23
2022-08-19T09:42:16.635Z,8.50
2022-08-19T09:45:01.538Z,6.95
2022-08-19T09:47:38.950Z,7.63
2022-08-19T09:52:54.157Z,7.72
2022-08-19T09:55:31.904Z,7.65
2022-08-19T09:58:04.409Z,7.68
2022-08-19T10:00:38.573Z,7.57
2022-08-19T10:03:09.899Z,7.88
2022-08-19T10:05:49.412Z,7.65
2022-08-19T10:08:26.632Z,8.20
2022-08-19T10:10:58.933Z,7.72
2022-08-19T10:13:32.813Z,7.47
2022-08-19T10:16:07.619Z,7.47
2022-08-19T10:18:44.554Z,6.67
2022-08-19T10:21:28.436Z,6.93
2022-08-19T10:24:06.239Z,6.63
2022-08-19T10:26:42.870Z,7.00
2022-08-19T10:29:32.064Z,6.55
2022-08-19T10:32:09.477Z,6.93
2022-08-19T10:34:48.408Z,6.97
2022-08-19T10:37:29.167Z,7.30
2022-08-19T10:40:09.028Z,7.00
2022-08-19T10:42:40.433Z,6.78
2022-08-19T10:45:12.008Z,7.60
2022-08-19T10:47:43.372Z,8.18
2022-08-19T10:50:33.265Z,7.57
2022-08-19T10:53:09.671Z,6.53
2022-08-19T10:55:59.746Z,7.05
2022-08-19T10:58:31.164Z,7.15
2022-08-19T11:01:02.570Z,6.70
2022-08-19T11:03:34.021Z,7.70
2022-08-19T11:06:08.069Z,6.47
2022-08-19T11:08:39.843Z,7.43
2022-08-19T11:11:11.525Z,7.30
2022-08-19T11:13:45.033Z,7.43
2022-08-19T11:16:26.978Z,7.05
2022-08-19T11:18:59.870Z,7.22
2022-08-19T11:21:34.202Z,6.65
2022-08-19T11:24:12.207Z,7.15
2022-08-19T11:26:45.121Z,7.28
2022-08-19T11:29:18.369Z,7.05
2022-08-19T11:31:50.706Z,8.13
2022-08-19T11:34:26.098Z,6.80
2022-08-19T11:37:00.333Z,6.05
2022-08-19T11:39:32.866Z,6.95
2022-08-19T11:42:25.988Z,7.53
2022-08-19T11:44:57.393Z,6.57
2022-08-19T11:47:29.118Z,7.53
2022-08-19T11:50:00.509Z,7.25
2022-08-19T11:52:31.873Z,6.50
2022-08-19T11:55:03.462Z,6.50
2022-08-19T11:57:34.846Z,6.13
2022-08-19T12:00:08.030Z,6.60
2022-08-19T12:02:39.397Z,6.40
2022-08-19T12:05:12.981Z,6.32
2022-08-19T12:07:44.732Z,6.22
2022-08-19T12:10:17.523Z,7.03
2022-08-19T12:12:58.630Z,6.88
2022-08-19T12:15:37.125Z,5.90
2022-08-19T12:18:09.939Z,5.68
2022-08-19T12:20:43.618Z,6.45
2022-08-19T12:23:15.153Z,6.80
2022-08-19T12:25:52.632Z,5.65
2022-08-19T12:28:25.505Z,11.43
2022-08-19T12:30:57.634Z,6.85
2022-08-19T12:33:29.468Z,6.55
2022-08-19T12:36:04.553Z,5.85
2022-08-19T12:38:37.044Z,6.30
2022-08-19T12:41:11.947Z,6.47
2022-08-19T12:43:43.872Z,5.82
2022-08-19T12:46:15.205Z,6.13
2022-08-19T12:48:48.953Z,6.68
2022-08-19T12:51:26.193Z,5.78
2022-08-19T12:53:57.562Z,5.85
2022-08-19T12:56:28.900Z,6.15
2022-08-19T12:59:03.950Z,6.47
2022-08-19T13:01:35.322Z,6.53
2022-08-19T13:04:06.658Z,6.38
2022-08-19T13:06:38.338Z,6.60
2022-08-19T13:09:10.048Z,5.88
2022-08-19T13:11:41.457Z,5.88
2022-08-19T13:14:12.766Z,5.70
2022-08-19T13:16:44.119Z,7.28
2022-08-19T13:19:15.454Z,6.43
2022-08-19T13:21:50.488Z,6.25
2022-08-19T13:24:22.417Z,6.97
2022-08-19T13:27:00.214Z,6.72
2022-08-19T13:29:50.060Z,7.50
2022-08-19T13:32:40.164Z,7.40
2022-08-19T13:35:16.709Z,6.03
2022-08-19T13:37:48.506Z,7.78
2022-08-19T13:40:24.858Z,7.85
2022-08-19T13:42:56.370Z,6.60
2022-08-19T13:45:29.855Z,6.70
2022-08-19T13:48:05.830Z,6.03
2022-08-19T13:50:42.949Z,6.53
2022-08-19T13:53:15.106Z,6.43
2022-08-19T13:55:46.492Z,6.40
2022-08-19T13:58:18.084Z,7.15
2022-08-19T14:00:50.639Z,5.85
2022-08-19T14:03:22.076Z,5.43
2022-08-19T14:05:53.386Z,6.35
2022-08-19T14:08:24.968Z,5.45
2022-08-19T14:10:56.297Z,5.85
2022-08-19T14:13:27.652Z,5.25
2022-08-19T14:15:59.032Z,5.63
2022-08-19T14:18:31.024Z,5.53
2022-08-19T14:21:03.878Z,6.03
2022-08-19T14:23:36.885Z,5.80
2022-08-19T14:26:12.691Z,5.72
2022-08-19T14:28:45.295Z,5.40
2022-08-19T14:31:19.803Z,5.07
2022-08-19T14:33:51.692Z,5.80
2022-08-19T14:36:22.998Z,5.20
2022-08-19T14:38:54.308Z,5.38
2022-08-19T14:41:25.697Z,5.85
2022-08-19T14:43:58.066Z,6.25
2022-08-19T14:46:30.050Z,5.20
2022-08-19T14:49:01.658Z,4.70
2022-08-19T14:51:40.854Z,5.65
2022-08-19T14:54:12.654Z,5.90
2022-08-19T14:56:44.303Z,5.53
2022-08-19T14:59:15.697Z,5.53
2022-08-19T15:01:47.094Z,9.02
2022-08-19T15:04:18.435Z,7.07
2022-08-19T15:06:50.210Z,5.63
2022-08-19T15:09:21.524Z,5.00
2022-08-19T15:11:52.904Z,4.93
2022-08-19T15:14:24.198Z,6.13
2022-08-19T15:16:55.507Z,5.68
2022-08-19T15:19:26.831Z,5.90
2022-08-19T15:21:58.738Z,10.57
2022-08-19T15:24:30.038Z,5.57
2022-08-19T15:27:01.467Z,6.90
2022-08-19T15:29:33.204Z,5.47
2022-08-19T15:32:06.911Z,5.82
2022-08-19T15:34:38.542Z,6.32
2022-08-19T15:37:09.886Z,5.82
2022-08-19T15:39:41.204Z,6.03
2022-08-19T15:42:12.554Z,5.43
2022-08-19T15:44:49.942Z,6.65
2022-08-19T15:47:22.035Z,7.13
2022-08-19T15:49:56.652Z,5.90
2022-08-19T15:52:30.230Z,6.35
2022-08-19T15:55:06.775Z,5.25
2022-08-19T15:57:56.850Z,5.45
2022-08-19T16:00:46.948Z,5.47
2022-08-19T16:03:42.856Z,5.95
2022-08-19T16:06:27.626Z,7.07
2022-08-19T16:09:04.810Z,9.40
2022-08-19T16:11:39.419Z,8.35
2022-08-19T16:14:11.119Z,5.90
2022-08-19T16:16:46.792Z,5.28
2022-08-19T16:19:19.874Z,5.13
2022-08-19T16:21:55.596Z,5.68
2022-08-19T16:24:28.411Z,7.63
2022-08-19T16:27:01.401Z,5.85
2022-08-19T16:29:39.289Z,5.22
2022-08-19T16:32:11.836Z,5.30
2022-08-19T16:34:44.032Z,5.15
2022-08-19T16:37:17.816Z,5.00
2022-08-19T16:39:49.475Z,5.35
2022-08-19T16:42:20.920Z,5.18
2022-08-19T16:44:52.490Z,5.47
2022-08-19T16:47:23.883Z,6.03
2022-08-19T16:49:55.620Z,4.60
2022-08-19T16:52:27.196Z,5.00
2022-08-19T16:54:59.080Z,4.72
2022-08-19T16:57:32.132Z,4.55
2022-08-19T17:00:09.685Z,5.07
2022-08-19T17:02:40.979Z,4.47
2022-08-19T17:05:12.414Z,4.50
2022-08-19T17:07:43.810Z,4.40
2022-08-19T17:10:15.257Z,4.57
2022-08-19T17:12:46.566Z,4.70
2022-08-19T17:15:18.033Z,4.53
2022-08-19T17:17:49.360Z,4.90
2022-08-19T17:20:20.781Z,4.15
2022-08-19T17:22:52.086Z,4.30
2022-08-19T17:25:27.560Z,4.40
2022-08-19T17:28:10.225Z,4.65
2022-08-19T17:30:41.573Z,4.72
2022-08-19T17:33:13.549Z,4.97
2022-08-19T17:35:45.006Z,5.47
2022-08-19T17:38:23.102Z,5.13
2022-08-19T17:41:01.118Z,5.10
2022-08-19T17:43:36.525Z,4.63
2022-08-19T17:46:13.210Z,5.43
2022-08-19T17:48:52.871Z,5.45
2022-08-19T17:51:33.144Z,5.27
2022-08-19T17:54:06.346Z,5.22
2022-08-19T17:56:38.066Z,5.38
2022-08-19T17:59:13.840Z,4.82
2022-08-19T18:01:53.156Z,5.75
2022-08-19T18:04:30.534Z,6.00
2022-08-19T18:07:08.112Z,6.05
2022-08-19T18:09:43.049Z,4.80
2022-08-19T18:12:24.545Z,5.18
2022-08-19T18:14:57.855Z,5.80
2022-08-19T18:17:30.161Z,5.50
2022-08-19T18:20:01.811Z,6.85
2022-08-19T18:22:42.646Z,5.70
2022-08-19T18:25:19.074Z,6.07
2022-08-19T18:27:53.124Z,5.70
2022-08-19T18:30:26.389Z,6.10
2022-08-19T18:32:59.698Z,5.28
2022-08-19T18:35:32.393Z,6.38
2022-08-19T18:38:23.719Z,6.18
2022-08-19T18:41:13.837Z,6.18
2022-08-19T18:44:04.333Z,5.57
2022-08-19T18:46:54.630Z,6.05
2022-08-19T18:49:31.910Z,5.32
2022-08-19T18:52:03.574Z,5.90
2022-08-19T18:54:35.596Z,5.75
2022-08-19T18:57:06.919Z,6.07
2022-08-19T18:59:38.617Z,5.75
2022-08-19T19:02:11.780Z,6.10
2022-08-19T19:04:43.499Z,5.57
2022-08-19T19:07:15.232Z,5.93
2022-08-19T19:09:52.602Z,6.55
2022-08-19T19:12:29.003Z,5.40
2022-08-19T19:15:01.706Z,5.40
2022-08-19T19:17:33.009Z,5.07
2022-08-19T19:20:05.266Z,5.30
2022-08-19T19:22:36.604Z,4.72
2022-08-19T19:25:08.734Z,5.28
2022-08-19T19:27:40.417Z,5.10
2022-08-19T19:30:13.646Z,5.22
2022-08-19T19:32:45.175Z,5.25
2022-08-19T19:35:16.985Z,5.55
2022-08-19T19:37:52.506Z,5.70
2022-08-19T19:40:23.970Z,6.18
2022-08-19T19:42:55.594Z,5.53
2022-08-19T19:45:27.970Z,5.95
2022-08-19T19:48:00.554Z,4.45
2022-08-19T19:50:32.159Z,4.90
2022-08-19T19:53:03.477Z,4.95
2022-08-19T19:55:34.786Z,5.75
2022-08-19T19:58:06.901Z,5.38
2022-08-19T20:00:38.325Z,6.32
2022-08-19T20:03:10.383Z,5.32
2022-08-19T20:05:41.683Z,5.10
2022-08-19T20:08:31.380Z,6.07
2022-08-19T20:11:05.709Z,6.43
2022-08-19T20:13:40.471Z,5.47
2022-08-19T20:16:11.829Z,6.57
2022-08-19T20:18:43.648Z,6.82
2022-08-19T20:21:14.946Z,6.45
2022-08-19T20:24:08.964Z,6.45
2022-08-19T20:26:37.814Z,6.90
2022-08-19T20:29:13.702Z,6.30
2022-08-19T20:32:00.572Z,5.72
2022-08-19T20:34:33.671Z,6.47
2022-08-19T20:37:05.281Z,6.15
2022-08-19T20:39:37.249Z,6.60
2022-08-19T20:42:08.612Z,7.57
2022-08-19T20:44:39.912Z,6.75
2022-08-19T20:47:11.280Z,6.90
2022-08-19T20:49:42.586Z,7.82
2022-08-19T20:52:13.913Z,7.97
2022-08-19T20:54:45.228Z,8.05
2022-08-19T20:57:16.542Z,7.35
2022-08-19T20:59:47.841Z,7.63
2022-08-19T21:02:20.952Z,7.80
2022-08-19T21:04:52.352Z,8.27
2022-08-19T21:07:38.808Z,9.33
2022-08-19T21:10:11.167Z,9.50
2022-08-19T21:12:44.257Z,8.10
2022-08-19T21:15:18.238Z,8.32
2022-08-19T21:17:51.347Z,8.90
2022-08-19T21:20:22.934Z,9.30
2022-08-19T21:22:57.859Z,9.00
2022-08-19T21:25:30.239Z,8.57
2022-08-19T21:28:01.807Z,7.32
2022-08-19T21:30:34.770Z,7.50
2022-08-19T21:33:07.275Z,7.35
2022-08-19T21:35:39.626Z,6.80
2022-08-19T21:38:11.122Z,7.10
2022-08-19T21:40:42.462Z,7.32
2022-08-19T21:43:14.645Z,7.40
2022-08-19T21:45:47.444Z,6.55
2022-08-19T21:48:19.010Z,7.32
2022-08-19T21:50:50.833Z,7.63
2022-08-19T21:53:22.956Z,7.20
2022-08-19T21:55:54.549Z,6.68
2022-08-19T21:58:28.125Z,7.93
2022-08-19T22:03:38.551Z,7.68
2022-08-19T22:06:09.949Z,7.80
2022-08-19T22:08:42.115Z,8.20
2022-08-19T22:11:13.430Z,8.43
2022-08-19T22:13:44.750Z,8.05
2022-08-19T22:16:17.973Z,7.00
2022-08-19T22:18:50.698Z,6.85
2022-08-19T22:21:40.069Z,7.30
2022-08-19T22:24:12.018Z,7.35
2022-08-19T22:26:43.332Z,7.55
2022-08-19T22:29:17.252Z,8.05
2022-08-19T22:31:54.300Z,8.20
2022-08-19T22:34:29.791Z,8.20
2022-08-19T22:37:01.117Z,8.10
2022-08-19T22:39:32.457Z,8.05
2022-08-19T22:42:03.849Z,7.57
2022-08-19T22:44:35.209Z,8.57
2022-08-19T22:47:06.600Z,9.55
2022-08-19T22:49:37.945Z,8.20
2022-08-19T22:52:17.202Z,8.00
2022-08-19T22:54:51.906Z,8.88
2022-08-19T22:57:23.638Z,8.73
2022-08-19T22:59:58.908Z,8.45
2022-08-19T23:02:38.330Z,8.40
2022-08-19T23:05:10.988Z,8.77
2022-08-19T23:07:42.327Z,8.25
2022-08-19T23:10:27.485Z,8.55
2022-08-19T23:13:00.197Z,7.75
2022-08-19T23:15:32.476Z,8.50
2022-08-19T23:18:04.704Z,8.00
2022-08-19T23:20:38.613Z,8.60
2022-08-19T23:23:18.676Z,7.88
2022-08-19T23:25:52.200Z,8.73
2022-08-19T23:28:41.990Z,8.48
2022-08-19T23:31:13.382Z,7.43
2022-08-19T23:33:51.387Z,7.93
2022-08-19T23:36:23.591Z,8.60
2022-08-19T23:38:55.293Z,9.23
2022-08-19T23:41:29.800Z,8.63
2022-08-19T23:44:01.124Z,9.10
2022-08-19T23:46:32.497Z,9.70
2022-08-19T23:49:21.973Z,9.32
2022-08-19T23:51:54.610Z,9.23
2022-08-19T23:54:27.451Z,8.05
2022-08-19T23:57:14.984Z,8.88
2022-08-19T23:59:46.364Z,8.38
